sensor_id;sensor_type;location;lat;lon;timestamp;P1;durP1;ratioP1;P2;durP2;ratioP2
75062;SDS011;63981;51.052;13.754;2023-03-14T00:02:10;1.40;;;1.00;;
75062;SDS011;63981;51.052;13.754;2023-03-14T00:04:36;1.95;;;1.00;;
75062;SDS011;63981;51.052;13.754;2023-03-14T00:07:02;2.10;;;1.08;;
75062;SDS011;63981;51.052;13.754;2023-03-14T00:09:28;2.30;;;1.17;;
75062;SDS011;63981;51.052;13.754;2023-03-14T00:11:55;2.03;;;1.08;;
75062;SDS011;63981;51.052;13.754;2023-03-14T00:14:21;1.95;;;0.68;;
75062;SDS011;63981;51.052;13.754;2023-03-14T00:16:47;1.30;;;0.80;;
75062;SDS011;63981;51.052;13.754;2023-03-14T00:19:13;1.23;;;0.80;;
75062;SDS011;63981;51.052;13.754;2023-03-14T00:21:39;2.20;;;1.00;;
75062;SDS011;63981;51.052;13.754;2023-03-14T00:24:05;2.30;;;0.93;;
75062;SDS011;63981;51.052;13.754;2023-03-14T00:26:31;1.98;;;1.10;;
75062;SDS011;63981;51.052;13.754;2023-03-14T00:28:57;1.52;;;1.13;;
75062;SDS011;63981;51.052;13.754;2023-03-14T00:31:23;2.25;;;0.90;;
75062;SDS011;63981;51.052;13.754;2023-03-14T00:33:51;1.70;;;1.20;;
75062;SDS011;63981;51.052;13.754;2023-03-14T00:36:17;2.97;;;1.52;;
75062;SDS011;63981;51.052;13.754;2023-03-14T00:38:46;2.67;;;1.23;;
75062;SDS011;63981;51.052;13.754;2023-03-14T00:41:15;2.63;;;1.00;;
75062;SDS011;63981;51.052;13.754;2023-03-14T00:43:46;1.67;;;1.00;;
75062;SDS011;63981;51.052;13.754;2023-03-14T00:46:12;2.42;;;1.38;;
75062;SDS011;63981;51.052;13.754;2023-03-14T00:48:38;2.30;;;1.55;;
75062;SDS011;63981;51.052;13.754;2023-03-14T00:51:05;3.28;;;1.60;;
75062;SDS011;63981;51.052;13.754;2023-03-14T00:53:35;2.53;;;1.35;;
75062;SDS011;63981;51.052;13.754;2023-03-14T00:56:03;2.58;;;1.48;;
75062;SDS011;63981;51.052;13.754;2023-03-14T00:58:31;2.90;;;2.00;;
75062;SDS011;63981;51.052;13.754;2023-03-14T01:00:56;3.75;;;2.13;;
75062;SDS011;63981;51.052;13.754;2023-03-14T01:03:22;2.65;;;1.83;;
75062;SDS011;63981;51.052;13.754;2023-03-14T01:05:49;2.50;;;1.90;;
75062;SDS011;63981;51.052;13.754;2023-03-14T01:08:15;2.60;;;1.70;;
75062;SDS011;63981;51.052;13.754;2023-03-14T01:10:42;2.90;;;1.90;;
75062;SDS011;63981;51.052;13.754;2023-03-14T01:13:09;2.60;;;1.90;;
75062;SDS011;63981;51.052;13.754;2023-03-14T01:15:35;3.92;;;2.05;;
75062;SDS011;63981;51.052;13.754;2023-03-14T01:18:03;3.50;;;2.33;;
75062;SDS011;63981;51.052;13.754;2023-03-14T01:20:29;2.60;;;1.90;;
75062;SDS011;63981;51.052;13.754;2023-03-14T01:22:55;2.40;;;2.00;;
75062;SDS011;63981;51.052;13.754;2023-03-14T01:25:21;3.30;;;2.42;;
75062;SDS011;63981;51.052;13.754;2023-03-14T01:27:47;3.33;;;2.20;;
75062;SDS011;63981;51.052;13.754;2023-03-14T01:30:13;2.28;;;2.00;;
75062;SDS011;63981;51.052;13.754;2023-03-14T01:32:39;2.75;;;2.47;;
75062;SDS011;63981;51.052;13.754;2023-03-14T01:35:05;3.63;;;2.40;;
75062;SDS011;63981;51.052;13.754;2023-03-14T01:37:32;2.55;;;2.33;;
75062;SDS011;63981;51.052;13.754;2023-03-14T01:39:58;3.10;;;2.38;;
75062;SDS011;63981;51.052;13.754;2023-03-14T01:42:23;2.75;;;2.03;;
75062;SDS011;63981;51.052;13.754;2023-03-14T01:44:53;2.75;;;2.20;;
75062;SDS011;63981;51.052;13.754;2023-03-14T01:47:21;3.78;;;2.70;;
75062;SDS011;63981;51.052;13.754;2023-03-14T01:49:56;3.45;;;2.47;;
75062;SDS011;63981;51.052;13.754;2023-03-14T01:52:32;5.53;;;3.00;;
75062;SDS011;63981;51.052;13.754;2023-03-14T01:55:05;3.50;;;2.78;;
75062;SDS011;63981;51.052;13.754;2023-03-14T01:57:39;3.17;;;2.58;;
75062;SDS011;63981;51.052;13.754;2023-03-14T02:00:11;3.25;;;2.80;;
75062;SDS011;63981;51.052;13.754;2023-03-14T02:02:49;3.67;;;2.88;;
75062;SDS011;63981;51.052;13.754;2023-03-14T02:05:20;3.17;;;2.17;;
75062;SDS011;63981;51.052;13.754;2023-03-14T02:07:55;2.17;;;1.60;;
75062;SDS011;63981;51.052;13.754;2023-03-14T02:10:27;2.83;;;1.90;;
75062;SDS011;63981;51.052;13.754;2023-03-14T02:12:57;3.00;;;1.85;;
75062;SDS011;63981;51.052;13.754;2023-03-14T02:15:59;2.20;;;1.95;;
75062;SDS011;63981;51.052;13.754;2023-03-14T02:18:53;3.03;;;1.90;;
75062;SDS011;63981;51.052;13.754;2023-03-14T02:24:24;2.10;;;1.73;;
75062;SDS011;63981;51.052;13.754;2023-03-14T02:29:51;2.00;;;1.48;;
75062;SDS011;63981;51.052;13.754;2023-03-14T02:32:30;1.45;;;1.10;;
75062;SDS011;63981;51.052;13.754;2023-03-14T02:34:58;2.55;;;1.38;;
75062;SDS011;63981;51.052;13.754;2023-03-14T02:37:28;1.48;;;1.30;;
75062;SDS011;63981;51.052;13.754;2023-03-14T02:40:00;1.67;;;1.30;;
75062;SDS011;63981;51.052;13.754;2023-03-14T02:42:26;2.20;;;1.23;;
75062;SDS011;63981;51.052;13.754;2023-03-14T02:47:36;1.80;;;1.40;;
75062;SDS011;63981;51.052;13.754;2023-03-14T02:50:14;1.00;;;0.77;;
75062;SDS011;63981;51.052;13.754;2023-03-14T02:52:42;0.82;;;0.73;;
75062;SDS011;63981;51.052;13.754;2023-03-14T02:55:08;0.88;;;0.50;;
75062;SDS011;63981;51.052;13.754;2023-03-14T02:57:36;2.30;;;0.60;;
75062;SDS011;63981;51.052;13.754;2023-03-14T03:00:02;1.58;;;0.50;;
75062;SDS011;63981;51.052;13.754;2023-03-14T03:02:34;0.80;;;0.40;;
75062;SDS011;63981;51.052;13.754;2023-03-14T03:05:00;0.63;;;0.47;;
75062;SDS011;63981;51.052;13.754;2023-03-14T03:07:26;0.47;;;0.22;;
75062;SDS011;63981;51.052;13.754;2023-03-14T03:09:53;1.20;;;0.30;;
75062;SDS011;63981;51.052;13.754;2023-03-14T03:12:19;0.40;;;0.40;;
75062;SDS011;63981;51.052;13.754;2023-03-14T03:14:45;0.73;;;0.30;;
75062;SDS011;63981;51.052;13.754;2023-03-14T03:17:11;0.82;;;0.30;;
75062;SDS011;63981;51.052;13.754;2023-03-14T03:19:37;0.52;;;0.25;;
75062;SDS011;63981;51.052;13.754;2023-03-14T03:22:03;0.70;;;0.30;;
75062;SDS011;63981;51.052;13.754;2023-03-14T03:24:29;0.52;;;0.30;;
75062;SDS011;63981;51.052;13.754;2023-03-14T03:26:55;0.60;;;0.30;;
75062;SDS011;63981;51.052;13.754;2023-03-14T03:29:21;0.68;;;0.35;;
75062;SDS011;63981;51.052;13.754;2023-03-14T03:31:47;0.82;;;0.32;;
75062;SDS011;63981;51.052;13.754;2023-03-14T03:34:12;0.52;;;0.30;;
75062;SDS011;63981;51.052;13.754;2023-03-14T03:36:39;0.65;;;0.30;;
75062;SDS011;63981;51.052;13.754;2023-03-14T03:39:06;1.05;;;0.30;;
75062;SDS011;63981;51.052;13.754;2023-03-14T03:41:32;0.28;;;0.13;;
75062;SDS011;63981;51.052;13.754;2023-03-14T03:43:58;0.40;;;0.15;;
75062;SDS011;63981;51.052;13.754;2023-03-14T03:46:24;0.43;;;0.20;;
75062;SDS011;63981;51.052;13.754;2023-03-14T03:48:57;0.60;;;0.20;;
75062;SDS011;63981;51.052;13.754;2023-03-14T03:51:25;1.27;;;0.30;;
75062;SDS011;63981;51.052;13.754;2023-03-14T03:53:51;0.50;;;0.20;;
75062;SDS011;63981;51.052;13.754;2023-03-14T03:56:24;1.02;;;0.20;;
75062;SDS011;63981;51.052;13.754;2023-03-14T03:58:50;0.30;;;0.17;;
75062;SDS011;63981;51.052;13.754;2023-03-14T04:01:16;0.35;;;0.10;;
75062;SDS011;63981;51.052;13.754;2023-03-14T04:03:44;0.93;;;0.30;;
75062;SDS011;63981;51.052;13.754;2023-03-14T04:06:11;0.88;;;0.20;;
75062;SDS011;63981;51.052;13.754;2023-03-14T04:08:40;0.60;;;0.20;;
75062;SDS011;63981;51.052;13.754;2023-03-14T04:13:52;1.00;;;0.25;;
75062;SDS011;63981;51.052;13.754;2023-03-14T04:16:22;0.30;;;0.10;;
75062;SDS011;63981;51.052;13.754;2023-03-14T04:18:53;0.10;;;0.03;;
75062;SDS011;63981;51.052;13.754;2023-03-14T04:21:21;1.20;;;0.20;;
75062;SDS011;63981;51.052;13.754;2023-03-14T04:23:52;0.45;;;0.10;;
75062;SDS011;63981;51.052;13.754;2023-03-14T04:26:18;0.43;;;0.13;;
75062;SDS011;63981;51.052;13.754;2023-03-14T04:28:44;0.10;;;0.10;;
75062;SDS011;63981;51.052;13.754;2023-03-14T04:31:14;1.40;;;0.30;;
75062;SDS011;63981;51.052;13.754;2023-03-14T04:33:42;1.30;;;0.25;;
75062;SDS011;63981;51.052;13.754;2023-03-14T04:36:08;0.88;;;0.30;;
75062;SDS011;63981;51.052;13.754;2023-03-14T04:38:35;1.25;;;0.20;;
75062;SDS011;63981;51.052;13.754;2023-03-14T04:41:00;1.35;;;0.43;;
75062;SDS011;63981;51.052;13.754;2023-03-14T04:43:30;2.45;;;0.20;;
75062;SDS011;63981;51.052;13.754;2023-03-14T04:46:05;1.30;;;0.40;;
75062;SDS011;63981;51.052;13.754;2023-03-14T04:48:32;2.92;;;0.47;;
75062;SDS011;63981;51.052;13.754;2023-03-14T04:50:59;1.63;;;0.30;;
75062;SDS011;63981;51.052;13.754;2023-03-14T04:53:27;0.40;;;0.17;;
75062;SDS011;63981;51.052;13.754;2023-03-14T04:55:55;2.08;;;0.38;;
75062;SDS011;63981;51.052;13.754;2023-03-14T04:58:23;1.88;;;0.22;;
75062;SDS011;63981;51.052;13.754;2023-03-14T05:00:51;0.88;;;0.20;;
75062;SDS011;63981;51.052;13.754;2023-03-14T05:06:26;2.13;;;0.28;;
75062;SDS011;63981;51.052;13.754;2023-03-14T05:09:15;1.02;;;0.20;;
75062;SDS011;63981;51.052;13.754;2023-03-14T05:11:59;1.15;;;0.28;;
75062;SDS011;63981;51.052;13.754;2023-03-14T05:14:39;1.45;;;0.65;;
75062;SDS011;63981;51.052;13.754;2023-03-14T05:17:10;1.15;;;0.30;;
75062;SDS011;63981;51.052;13.754;2023-03-14T05:20:03;1.88;;;0.20;;
75062;SDS011;63981;51.052;13.754;2023-03-14T05:22:56;3.45;;;0.50;;
75062;SDS011;63981;51.052;13.754;2023-03-14T05:25:42;1.65;;;0.40;;
75062;SDS011;63981;51.052;13.754;2023-03-14T05:28:27;2.55;;;0.30;;
75062;SDS011;63981;51.052;13.754;2023-03-14T05:31:13;2.58;;;0.45;;
75062;SDS011;63981;51.052;13.754;2023-03-14T05:33:52;2.15;;;0.50;;
75062;SDS011;63981;51.052;13.754;2023-03-14T05:36:32;2.53;;;0.50;;
75062;SDS011;63981;51.052;13.754;2023-03-14T05:39:11;3.95;;;0.98;;
75062;SDS011;63981;51.052;13.754;2023-03-14T05:41:45;0.75;;;0.40;;
75062;SDS011;63981;51.052;13.754;2023-03-14T05:46:58;2.33;;;0.30;;
75062;SDS011;63981;51.052;13.754;2023-03-14T05:49:34;1.75;;;0.50;;
75062;SDS011;63981;51.052;13.754;2023-03-14T05:52:16;2.75;;;0.40;;
75062;SDS011;63981;51.052;13.754;2023-03-14T05:55:01;4.43;;;1.35;;
75062;SDS011;63981;51.052;13.754;2023-03-14T05:57:50;3.47;;;0.60;;
75062;SDS011;63981;51.052;13.754;2023-03-14T06:00:34;3.55;;;0.65;;
75062;SDS011;63981;51.052;13.754;2023-03-14T06:03:12;2.33;;;0.47;;
75062;SDS011;63981;51.052;13.754;2023-03-14T06:05:43;2.92;;;0.70;;
75062;SDS011;63981;51.052;13.754;2023-03-14T06:08:09;1.38;;;0.38;;
75062;SDS011;63981;51.052;13.754;2023-03-14T06:10:35;3.65;;;0.70;;
75062;SDS011;63981;51.052;13.754;2023-03-14T06:13:01;1.92;;;0.40;;
75062;SDS011;63981;51.052;13.754;2023-03-14T06:15:27;2.90;;;0.57;;
75062;SDS011;63981;51.052;13.754;2023-03-14T06:17:55;2.95;;;0.50;;
75062;SDS011;63981;51.052;13.754;2023-03-14T06:20:21;3.90;;;0.50;;
75062;SDS011;63981;51.052;13.754;2023-03-14T06:22:48;2.75;;;0.45;;
75062;SDS011;63981;51.052;13.754;2023-03-14T06:25:13;3.75;;;0.68;;
75062;SDS011;63981;51.052;13.754;2023-03-14T06:27:43;4.32;;;1.05;;
75062;SDS011;63981;51.052;13.754;2023-03-14T06:30:09;2.10;;;0.60;;
75062;SDS011;63981;51.052;13.754;2023-03-14T06:32:35;5.20;;;0.70;;
75062;SDS011;63981;51.052;13.754;2023-03-14T06:35:05;2.45;;;0.55;;
75062;SDS011;63981;51.052;13.754;2023-03-14T06:37:36;2.10;;;0.50;;
75062;SDS011;63981;51.052;13.754;2023-03-14T06:40:02;2.97;;;0.73;;
75062;SDS011;63981;51.052;13.754;2023-03-14T06:42:46;1.15;;;0.60;;
75062;SDS011;63981;51.052;13.754;2023-03-14T06:45:14;2.55;;;0.70;;
75062;SDS011;63981;51.052;13.754;2023-03-14T06:47:40;3.20;;;0.68;;
75062;SDS011;63981;51.052;13.754;2023-03-14T06:50:07;2.85;;;0.73;;
75062;SDS011;63981;51.052;13.754;2023-03-14T06:52:34;3.55;;;0.55;;
75062;SDS011;63981;51.052;13.754;2023-03-14T06:55:00;3.67;;;1.40;;
75062;SDS011;63981;51.052;13.754;2023-03-14T06:57:26;3.13;;;1.00;;
75062;SDS011;63981;51.052;13.754;2023-03-14T06:59:53;3.63;;;0.50;;
75062;SDS011;63981;51.052;13.754;2023-03-14T07:02:18;2.45;;;1.00;;
75062;SDS011;63981;51.052;13.754;2023-03-14T07:04:44;3.50;;;0.68;;
75062;SDS011;63981;51.052;13.754;2023-03-14T07:07:10;2.75;;;0.47;;
75062;SDS011;63981;51.052;13.754;2023-03-14T07:09:36;4.78;;;0.63;;
75062;SDS011;63981;51.052;13.754;2023-03-14T07:12:03;3.42;;;0.60;;
75062;SDS011;63981;51.052;13.754;2023-03-14T07:14:30;4.88;;;0.70;;
75062;SDS011;63981;51.052;13.754;2023-03-14T07:16:55;2.35;;;0.52;;
75062;SDS011;63981;51.052;13.754;2023-03-14T07:19:21;1.92;;;0.68;;
75062;SDS011;63981;51.052;13.754;2023-03-14T07:21:47;3.20;;;0.73;;
75062;SDS011;63981;51.052;13.754;2023-03-14T07:24:15;2.10;;;0.50;;
75062;SDS011;63981;51.052;13.754;2023-03-14T07:26:41;2.28;;;0.47;;
75062;SDS011;63981;51.052;13.754;2023-03-14T07:29:07;1.92;;;0.80;;
75062;SDS011;63981;51.052;13.754;2023-03-14T07:31:33;3.38;;;1.00;;
75062;SDS011;63981;51.052;13.754;2023-03-14T07:34:00;1.75;;;0.57;;
75062;SDS011;63981;51.052;13.754;2023-03-14T07:36:30;3.78;;;1.00;;
75062;SDS011;63981;51.052;13.754;2023-03-14T07:38:56;2.33;;;0.68;;
75062;SDS011;63981;51.052;13.754;2023-03-14T07:41:33;2.35;;;0.80;;
75062;SDS011;63981;51.052;13.754;2023-03-14T07:44:32;0.73;;;0.50;;
75062;SDS011;63981;51.052;13.754;2023-03-14T07:46:58;3.65;;;0.70;;
75062;SDS011;63981;51.052;13.754;2023-03-14T07:49:24;2.70;;;0.57;;
75062;SDS011;63981;51.052;13.754;2023-03-14T07:51:50;2.30;;;0.63;;
75062;SDS011;63981;51.052;13.754;2023-03-14T07:54:16;3.28;;;0.70;;
75062;SDS011;63981;51.052;13.754;2023-03-14T07:56:42;3.00;;;0.75;;
75062;SDS011;63981;51.052;13.754;2023-03-14T07:59:07;3.42;;;0.70;;
75062;SDS011;63981;51.052;13.754;2023-03-14T08:01:33;2.42;;;0.43;;
75062;SDS011;63981;51.052;13.754;2023-03-14T08:03:59;5.03;;;0.75;;
75062;SDS011;63981;51.052;13.754;2023-03-14T08:06:25;2.80;;;0.60;;
75062;SDS011;63981;51.052;13.754;2023-03-14T08:08:51;2.40;;;0.40;;
75062;SDS011;63981;51.052;13.754;2023-03-14T08:11:17;2.45;;;0.70;;
75062;SDS011;63981;51.052;13.754;2023-03-14T08:13:43;0.85;;;0.43;;
75062;SDS011;63981;51.052;13.754;2023-03-14T08:16:17;3.67;;;0.70;;
75062;SDS011;63981;51.052;13.754;2023-03-14T08:18:43;2.67;;;0.40;;
75062;SDS011;63981;51.052;13.754;2023-03-14T08:21:09;0.90;;;0.35;;
75062;SDS011;63981;51.052;13.754;2023-03-14T08:23:36;0.90;;;0.40;;
75062;SDS011;63981;51.052;13.754;2023-03-14T08:26:01;1.08;;;0.47;;
75062;SDS011;63981;51.052;13.754;2023-03-14T08:28:27;2.45;;;0.38;;
75062;SDS011;63981;51.052;13.754;2023-03-14T08:30:58;1.65;;;0.40;;
75062;SDS011;63981;51.052;13.754;2023-03-14T08:33:26;1.20;;;0.40;;
75062;SDS011;63981;51.052;13.754;2023-03-14T08:35:57;1.40;;;0.45;;
75062;SDS011;63981;51.052;13.754;2023-03-14T08:38:25;1.95;;;0.45;;
75062;SDS011;63981;51.052;13.754;2023-03-14T08:41:00;1.58;;;0.55;;
75062;SDS011;63981;51.052;13.754;2023-03-14T08:43:27;2.63;;;0.57;;
75062;SDS011;63981;51.052;13.754;2023-03-14T08:45:57;2.55;;;0.35;;
75062;SDS011;63981;51.052;13.754;2023-03-14T08:48:24;1.83;;;0.50;;
75062;SDS011;63981;51.052;13.754;2023-03-14T08:50:49;1.10;;;0.30;;
75062;SDS011;63981;51.052;13.754;2023-03-14T08:53:15;1.70;;;0.30;;
75062;SDS011;63981;51.052;13.754;2023-03-14T08:55:41;1.35;;;0.43;;
75062;SDS011;63981;51.052;13.754;2023-03-14T08:58:07;3.72;;;0.50;;
75062;SDS011;63981;51.052;13.754;2023-03-14T09:00:32;0.80;;;0.30;;
75062;SDS011;63981;51.052;13.754;2023-03-14T09:02:58;3.00;;;0.40;;
75062;SDS011;63981;51.052;13.754;2023-03-14T09:05:24;3.35;;;0.55;;
75062;SDS011;63981;51.052;13.754;2023-03-14T09:07:49;3.35;;;0.60;;
75062;SDS011;63981;51.052;13.754;2023-03-14T09:10:15;1.73;;;0.47;;
75062;SDS011;63981;51.052;13.754;2023-03-14T09:12:41;3.30;;;0.60;;
75062;SDS011;63981;51.052;13.754;2023-03-14T09:15:07;2.47;;;0.40;;
75062;SDS011;63981;51.052;13.754;2023-03-14T09:17:33;1.73;;;0.40;;
75062;SDS011;63981;51.052;13.754;2023-03-14T09:19:59;1.85;;;0.50;;
75062;SDS011;63981;51.052;13.754;2023-03-14T09:22:24;2.47;;;0.40;;
75062;SDS011;63981;51.052;13.754;2023-03-14T09:24:51;2.75;;;0.50;;
75062;SDS011;63981;51.052;13.754;2023-03-14T09:27:17;0.82;;;0.30;;
75062;SDS011;63981;51.052;13.754;2023-03-14T09:29:42;1.20;;;0.43;;
75062;SDS011;63981;51.052;13.754;2023-03-14T09:32:08;1.58;;;0.45;;
75062;SDS011;63981;51.052;13.754;2023-03-14T09:34:34;1.40;;;0.45;;
75062;SDS011;63981;51.052;13.754;2023-03-14T09:36:59;1.00;;;0.40;;
75062;SDS011;63981;51.052;13.754;2023-03-14T09:39:25;4.03;;;0.50;;
75062;SDS011;63981;51.052;13.754;2023-03-14T09:41:51;0.70;;;0.28;;
75062;SDS011;63981;51.052;13.754;2023-03-14T09:44:21;3.05;;;0.50;;
75062;SDS011;63981;51.052;13.754;2023-03-14T09:46:51;0.93;;;0.32;;
75062;SDS011;63981;51.052;13.754;2023-03-14T09:51:47;1.67;;;0.20;;
75062;SDS011;63981;51.052;13.754;2023-03-14T09:54:26;2.42;;;0.40;;
75062;SDS011;63981;51.052;13.754;2023-03-14T09:57:04;0.75;;;0.40;;
75062;SDS011;63981;51.052;13.754;2023-03-14T09:59:31;1.08;;;0.20;;
75062;SDS011;63981;51.052;13.754;2023-03-14T10:02:01;0.73;;;0.30;;
75062;SDS011;63981;51.052;13.754;2023-03-14T10:04:36;0.40;;;0.30;;
75062;SDS011;63981;51.052;13.754;2023-03-14T10:07:07;1.58;;;0.30;;
75062;SDS011;63981;51.052;13.754;2023-03-14T10:09:40;0.85;;;0.25;;
75062;SDS011;63981;51.052;13.754;2023-03-14T10:12:07;0.50;;;0.30;;
75062;SDS011;63981;51.052;13.754;2023-03-14T10:14:35;2.15;;;0.30;;
75062;SDS011;63981;51.052;13.754;2023-03-14T10:17:09;1.33;;;0.30;;
75062;SDS011;63981;51.052;13.754;2023-03-14T10:19:36;5.55;;;0.50;;
75062;SDS011;63981;51.052;13.754;2023-03-14T10:22:04;2.85;;;0.30;;
75062;SDS011;63981;51.052;13.754;2023-03-14T10:24:34;3.95;;;0.40;;
75062;SDS011;63981;51.052;13.754;2023-03-14T10:27:02;0.52;;;0.32;;
75062;SDS011;63981;51.052;13.754;2023-03-14T10:29:31;1.75;;;0.50;;
75062;SDS011;63981;51.052;13.754;2023-03-14T10:32:04;1.85;;;0.45;;
75062;SDS011;63981;51.052;13.754;2023-03-14T10:34:36;0.57;;;0.20;;
75062;SDS011;63981;51.052;13.754;2023-03-14T10:37:22;1.48;;;0.30;;
75062;SDS011;63981;51.052;13.754;2023-03-14T10:39:52;4.22;;;0.50;;
75062;SDS011;63981;51.052;13.754;2023-03-14T10:42:21;1.02;;;0.47;;
75062;SDS011;63981;51.052;13.754;2023-03-14T10:44:57;1.88;;;0.30;;
75062;SDS011;63981;51.052;13.754;2023-03-14T10:47:26;0.40;;;0.28;;
75062;SDS011;63981;51.052;13.754;2023-03-14T10:49:54;2.22;;;0.50;;
75062;SDS011;63981;51.052;13.754;2023-03-14T10:52:22;1.17;;;0.22;;
75062;SDS011;63981;51.052;13.754;2023-03-14T10:57:26;2.40;;;0.30;;
75062;SDS011;63981;51.052;13.754;2023-03-14T10:59:53;2.55;;;0.32;;
75062;SDS011;63981;51.052;13.754;2023-03-14T11:08:02;3.58;;;0.52;;
75062;SDS011;63981;51.052;13.754;2023-03-14T11:10:49;0.30;;;0.20;;
75062;SDS011;63981;51.052;13.754;2023-03-14T11:13:24;2.33;;;0.25;;
75062;SDS011;63981;51.052;13.754;2023-03-14T11:21:26;0.98;;;0.30;;
75062;SDS011;63981;51.052;13.754;2023-03-14T11:27:07;2.88;;;0.38;;
75062;SDS011;63981;51.052;13.754;2023-03-14T11:29:52;0.35;;;0.20;;
75062;SDS011;63981;51.052;13.754;2023-03-14T11:36:15;0.40;;;0.13;;
75062;SDS011;63981;51.052;13.754;2023-03-14T11:41:27;1.48;;;0.45;;
75062;SDS011;63981;51.052;13.754;2023-03-14T11:43:58;0.63;;;0.22;;
75062;SDS011;63981;51.052;13.754;2023-03-14T11:46:31;0.52;;;0.10;;
75062;SDS011;63981;51.052;13.754;2023-03-14T11:51:50;0.90;;;0.20;;
75062;SDS011;63981;51.052;13.754;2023-03-14T11:57:11;0.70;;;0.22;;
75062;SDS011;63981;51.052;13.754;2023-03-14T12:05:19;0.80;;;0.20;;
75062;SDS011;63981;51.052;13.754;2023-03-14T12:13:02;1.33;;;0.28;;
75062;SDS011;63981;51.052;13.754;2023-03-14T12:15:28;0.50;;;0.13;;
75062;SDS011;63981;51.052;13.754;2023-03-14T12:17:55;0.98;;;0.32;;
75062;SDS011;63981;51.052;13.754;2023-03-14T12:20:21;0.98;;;0.10;;
75062;SDS011;63981;51.052;13.754;2023-03-14T12:22:53;1.67;;;0.10;;
75062;SDS011;63981;51.052;13.754;2023-03-14T12:25:25;0.88;;;0.20;;
75062;SDS011;63981;51.052;13.754;2023-03-14T12:30:25;1.33;;;0.20;;
75062;SDS011;63981;51.052;13.754;2023-03-14T12:35:44;1.33;;;0.25;;
75062;SDS011;63981;51.052;13.754;2023-03-14T12:44:28;0.90;;;0.40;;
75062;SDS011;63981;51.052;13.754;2023-03-14T12:47:40;1.00;;;0.28;;
75062;SDS011;63981;51.052;13.754;2023-03-14T12:50:07;2.40;;;0.28;;
75062;SDS011;63981;51.052;13.754;2023-03-14T12:52:53;1.45;;;0.52;;
75062;SDS011;63981;51.052;13.754;2023-03-14T12:55:41;0.75;;;0.22;;
75062;SDS011;63981;51.052;13.754;2023-03-14T12:58:15;0.95;;;0.10;;
75062;SDS011;63981;51.052;13.754;2023-03-14T13:00:51;0.65;;;0.10;;
75062;SDS011;63981;51.052;13.754;2023-03-14T13:03:23;0.10;;;0.00;;
75062;SDS011;63981;51.052;13.754;2023-03-14T13:08:56;1.73;;;0.38;;
75062;SDS011;63981;51.052;13.754;2023-03-14T13:11:19;0.43;;;0.10;;
75062;SDS011;63981;51.052;13.754;2023-03-14T13:13:52;1.13;;;0.10;;
75062;SDS011;63981;51.052;13.754;2023-03-14T13:16:22;0.32;;;0.10;;
75062;SDS011;63981;51.052;13.754;2023-03-14T13:18:49;0.68;;;0.28;;
75062;SDS011;63981;51.052;13.754;2023-03-14T13:21:24;0.40;;;0.10;;
75062;SDS011;63981;51.052;13.754;2023-03-14T13:23:58;4.28;;;0.22;;
75062;SDS011;63981;51.052;13.754;2023-03-14T13:26:34;0.70;;;0.10;;
75062;SDS011;63981;51.052;13.754;2023-03-14T13:31:48;1.55;;;0.22;;
75062;SDS011;63981;51.052;13.754;2023-03-14T13:34:19;0.70;;;0.20;;
75062;SDS011;63981;51.052;13.754;2023-03-14T13:36:45;0.73;;;0.20;;
75062;SDS011;63981;51.052;13.754;2023-03-14T13:39:19;0.35;;;0.17;;
75062;SDS011;63981;51.052;13.754;2023-03-14T13:41:50;0.75;;;0.00;;
75062;SDS011;63981;51.052;13.754;2023-03-14T13:47:01;0.40;;;0.10;;
75062;SDS011;63981;51.052;13.754;2023-03-14T13:49:29;0.30;;;0.20;;
75062;SDS011;63981;51.052;13.754;2023-03-14T13:51:59;0.95;;;0.22;;
75062;SDS011;63981;51.052;13.754;2023-03-14T13:54:25;0.55;;;0.13;;
75062;SDS011;63981;51.052;13.754;2023-03-14T13:56:59;1.15;;;0.30;;
75062;SDS011;63981;51.052;13.754;2023-03-14T13:59:33;0.30;;;0.20;;
75062;SDS011;63981;51.052;13.754;2023-03-14T14:02:13;0.28;;;0.10;;
75062;SDS011;63981;51.052;13.754;2023-03-14T14:04:39;0.30;;;0.10;;
75062;SDS011;63981;51.052;13.754;2023-03-14T14:07:07;0.25;;;0.10;;
75062;SDS011;63981;51.052;13.754;2023-03-14T14:09:37;0.30;;;0.10;;
75062;SDS011;63981;51.052;13.754;2023-03-14T14:12:13;0.35;;;0.08;;
75062;SDS011;63981;51.052;13.754;2023-03-14T14:14:47;1.08;;;0.20;;
75062;SDS011;63981;51.052;13.754;2023-03-14T14:17:21;0.55;;;0.10;;
75062;SDS011;63981;51.052;13.754;2023-03-14T14:19:52;0.38;;;0.30;;
75062;SDS011;63981;51.052;13.754;2023-03-14T14:22:19;0.30;;;0.10;;
75062;SDS011;63981;51.052;13.754;2023-03-14T14:24:45;0.50;;;0.10;;
75062;SDS011;63981;51.052;13.754;2023-03-14T14:27:19;0.52;;;0.30;;
75062;SDS011;63981;51.052;13.754;2023-03-14T14:29:57;0.40;;;0.10;;
75062;SDS011;63981;51.052;13.754;2023-03-14T14:32:24;0.73;;;0.20;;
75062;SDS011;63981;51.052;13.754;2023-03-14T14:34:57;0.60;;;0.15;;
75062;SDS011;63981;51.052;13.754;2023-03-14T14:37:26;0.60;;;0.20;;
75062;SDS011;63981;51.052;13.754;2023-03-14T14:39:55;0.17;;;0.05;;
75062;SDS011;63981;51.052;13.754;2023-03-14T14:42:32;0.30;;;0.10;;
75062;SDS011;63981;51.052;13.754;2023-03-14T14:44:58;0.10;;;0.10;;
75062;SDS011;63981;51.052;13.754;2023-03-14T14:47:28;0.63;;;0.20;;
75062;SDS011;63981;51.052;13.754;2023-03-14T14:49:55;0.43;;;0.10;;
75062;SDS011;63981;51.052;13.754;2023-03-14T14:52:41;1.38;;;0.20;;
75062;SDS011;63981;51.052;13.754;2023-03-14T14:55:52;0.25;;;0.10;;
75062;SDS011;63981;51.052;13.754;2023-03-14T14:58:11;1.35;;;0.20;;
75062;SDS011;63981;51.052;13.754;2023-03-14T15:01:20;0.25;;;0.10;;
75062;SDS011;63981;51.052;13.754;2023-03-14T15:03:46;0.40;;;0.17;;
75062;SDS011;63981;51.052;13.754;2023-03-14T15:06:13;1.13;;;0.40;;
75062;SDS011;63981;51.052;13.754;2023-03-14T15:08:40;0.30;;;0.10;;
75062;SDS011;63981;51.052;13.754;2023-03-14T15:11:15;1.48;;;0.10;;
75062;SDS011;63981;51.052;13.754;2023-03-14T15:13:48;0.25;;;0.10;;
75062;SDS011;63981;51.052;13.754;2023-03-14T15:16:15;0.10;;;0.10;;
75062;SDS011;63981;51.052;13.754;2023-03-14T15:18:43;1.95;;;0.20;;
75062;SDS011;63981;51.052;13.754;2023-03-14T15:21:11;0.10;;;0.10;;
75062;SDS011;63981;51.052;13.754;2023-03-14T15:23:37;0.40;;;0.10;;
75062;SDS011;63981;51.052;13.754;2023-03-14T15:26:05;0.90;;;0.20;;
75062;SDS011;63981;51.052;13.754;2023-03-14T15:28:38;0.43;;;0.20;;
75062;SDS011;63981;51.052;13.754;2023-03-14T15:31:04;1.17;;;0.10;;
75062;SDS011;63981;51.052;13.754;2023-03-14T15:33:30;1.60;;;0.10;;
75062;SDS011;63981;51.052;13.754;2023-03-14T15:35:56;0.22;;;0.10;;
75062;SDS011;63981;51.052;13.754;2023-03-14T15:38:22;0.60;;;0.20;;
75062;SDS011;63981;51.052;13.754;2023-03-14T15:40:48;1.20;;;0.30;;
75062;SDS011;63981;51.052;13.754;2023-03-14T15:43:15;1.38;;;0.20;;
75062;SDS011;63981;51.052;13.754;2023-03-14T15:45:42;0.55;;;0.20;;
75062;SDS011;63981;51.052;13.754;2023-03-14T15:48:12;0.35;;;0.10;;
75062;SDS011;63981;51.052;13.754;2023-03-14T15:50:43;0.50;;;0.20;;
75062;SDS011;63981;51.052;13.754;2023-03-14T15:53:09;0.40;;;0.10;;
75062;SDS011;63981;51.052;13.754;2023-03-14T15:55:35;0.60;;;0.20;;
75062;SDS011;63981;51.052;13.754;2023-03-14T15:58:01;1.02;;;0.80;;
75062;SDS011;63981;51.052;13.754;2023-03-14T16:00:27;0.63;;;0.30;;
75062;SDS011;63981;51.052;13.754;2023-03-14T16:02:54;0.60;;;0.20;;
75062;SDS011;63981;51.052;13.754;2023-03-14T16:05:20;0.60;;;0.22;;
75062;SDS011;63981;51.052;13.754;2023-03-14T16:07:46;0.70;;;0.30;;
75062;SDS011;63981;51.052;13.754;2023-03-14T16:10:13;0.35;;;0.10;;